sensor_id;sensor_type;location;lat;lon;timestamp;P1;durP1;ratioP1;P2;durP2;ratioP2
13228;SDS011;6680;53.220;10.402;2023-10-09T00:02:05;2.73;;;2.10;;
13228;SDS011;6680;53.220;10.402;2023-10-09T00:04:36;2.50;;;2.10;;
13228;SDS011;6680;53.220;10.402;2023-10-09T00:07:06;2.10;;;1.90;;
13228;SDS011;6680;53.220;10.402;2023-10-09T00:09:33;3.70;;;2.23;;
13228;SDS011;6680;53.220;10.402;2023-10-09T00:12:11;2.50;;;2.30;;
13228;SDS011;6680;53.220;10.402;2023-10-09T00:14:41;1.97;;;1.87;;
13228;SDS011;6680;53.220;10.402;2023-10-09T00:17:12;2.67;;;2.10;;
13228;SDS011;6680;53.220;10.402;2023-10-09T00:19:44;1.90;;;1.70;;
13228;SDS011;6680;53.220;10.402;2023-10-09T00:22:15;2.17;;;1.90;;
13228;SDS011;6680;53.220;10.402;2023-10-09T00:24:56;2.20;;;2.00;;
13228;SDS011;6680;53.220;10.402;2023-10-09T00:27:46;2.73;;;2.13;;
13228;SDS011;6680;53.220;10.402;2023-10-09T00:30:14;4.60;;;2.10;;
13228;SDS011;6680;53.220;10.402;2023-10-09T00:32:43;3.60;;;2.10;;
13228;SDS011;6680;53.220;10.402;2023-10-09T00:35:18;4.47;;;2.13;;
13228;SDS011;6680;53.220;10.402;2023-10-09T00:38:11;4.07;;;2.27;;
13228;SDS011;6680;53.220;10.402;2023-10-09T00:40:48;8.37;;;2.23;;
13228;SDS011;6680;53.220;10.402;2023-10-09T00:43:22;1.97;;;1.73;;
13228;SDS011;6680;53.220;10.402;2023-10-09T00:45:53;2.53;;;2.07;;
13228;SDS011;6680;53.220;10.402;2023-10-09T00:48:20;3.87;;;2.40;;
13228;SDS011;6680;53.220;10.402;2023-10-09T00:50:57;1.93;;;1.83;;
13228;SDS011;6680;53.220;10.402;2023-10-09T00:53:25;3.03;;;1.90;;
13228;SDS011;6680;53.220;10.402;2023-10-09T00:55:58;2.30;;;2.00;;
13228;SDS011;6680;53.220;10.402;2023-10-09T00:58:32;5.03;;;2.30;;
13228;SDS011;6680;53.220;10.402;2023-10-09T01:01:01;2.30;;;2.10;;
13228;SDS011;6680;53.220;10.402;2023-10-09T01:03:30;2.47;;;1.90;;
13228;SDS011;6680;53.220;10.402;2023-10-09T01:06:01;3.30;;;2.10;;
13228;SDS011;6680;53.220;10.402;2023-10-09T01:08:41;3.07;;;1.83;;
13228;SDS011;6680;53.220;10.402;2023-10-09T01:11:13;5.53;;;2.20;;
13228;SDS011;6680;53.220;10.402;2023-10-09T01:13:43;2.27;;;2.07;;
13228;SDS011;6680;53.220;10.402;2023-10-09T01:16:19;5.40;;;1.97;;
13228;SDS011;6680;53.220;10.402;2023-10-09T01:18:48;2.27;;;1.90;;
13228;SDS011;6680;53.220;10.402;2023-10-09T01:21:17;2.57;;;2.37;;
13228;SDS011;6680;53.220;10.402;2023-10-09T01:23:50;4.23;;;2.47;;
13228;SDS011;6680;53.220;10.402;2023-10-09T01:26:28;3.77;;;2.30;;
13228;SDS011;6680;53.220;10.402;2023-10-09T01:28:57;2.63;;;2.10;;
13228;SDS011;6680;53.220;10.402;2023-10-09T01:31:25;3.20;;;2.07;;
13228;SDS011;6680;53.220;10.402;2023-10-09T01:33:52;2.63;;;2.17;;
13228;SDS011;6680;53.220;10.402;2023-10-09T01:36:20;2.40;;;2.20;;
13228;SDS011;6680;53.220;10.402;2023-10-09T01:38:58;2.63;;;2.40;;
13228;SDS011;6680;53.220;10.402;2023-10-09T01:41:26;2.77;;;2.50;;
13228;SDS011;6680;53.220;10.402;2023-10-09T01:43:59;7.17;;;2.63;;
13228;SDS011;6680;53.220;10.402;2023-10-09T01:46:35;3.20;;;2.23;;
13228;SDS011;6680;53.220;10.402;2023-10-09T01:49:02;2.83;;;2.50;;
13228;SDS011;6680;53.220;10.402;2023-10-09T01:51:35;3.13;;;2.67;;
13228;SDS011;6680;53.220;10.402;2023-10-09T01:54:05;2.70;;;2.17;;
13228;SDS011;6680;53.220;10.402;2023-10-09T01:56:32;4.80;;;2.70;;
13228;SDS011;6680;53.220;10.402;2023-10-09T01:59:02;2.67;;;2.23;;
13228;SDS011;6680;53.220;10.402;2023-10-09T02:01:30;4.93;;;2.47;;
13228;SDS011;6680;53.220;10.402;2023-10-09T02:03:58;4.07;;;2.00;;
13228;SDS011;6680;53.220;10.402;2023-10-09T02:06:31;4.20;;;2.43;;
13228;SDS011;6680;53.220;10.402;2023-10-09T02:08:58;3.03;;;2.40;;
13228;SDS011;6680;53.220;10.402;2023-10-09T02:11:26;7.63;;;2.60;;
13228;SDS011;6680;53.220;10.402;2023-10-09T02:14:06;5.17;;;2.27;;
13228;SDS011;6680;53.220;10.402;2023-10-09T02:16:44;2.73;;;2.43;;
13228;SDS011;6680;53.220;10.402;2023-10-09T02:19:27;3.63;;;2.67;;
13228;SDS011;6680;53.220;10.402;2023-10-09T02:21:58;2.40;;;2.20;;
13228;SDS011;6680;53.220;10.402;2023-10-09T02:24:27;4.57;;;2.17;;
13228;SDS011;6680;53.220;10.402;2023-10-09T02:27:16;2.67;;;2.40;;
13228;SDS011;6680;53.220;10.402;2023-10-09T02:30:05;2.50;;;2.30;;
13228;SDS011;6680;53.220;10.402;2023-10-09T02:32:41;4.13;;;2.40;;
13228;SDS011;6680;53.220;10.402;2023-10-09T02:35:09;5.03;;;2.60;;
13228;SDS011;6680;53.220;10.402;2023-10-09T02:37:53;4.43;;;2.20;;
13228;SDS011;6680;53.220;10.402;2023-10-09T02:40:20;2.60;;;2.20;;
13228;SDS011;6680;53.220;10.402;2023-10-09T02:42:52;3.37;;;2.13;;
13228;SDS011;6680;53.220;10.402;2023-10-09T02:45:20;5.13;;;2.53;;
13228;SDS011;6680;53.220;10.402;2023-10-09T02:47:54;6.80;;;2.10;;
13228;SDS011;6680;53.220;10.402;2023-10-09T02:50:21;4.10;;;2.70;;
13228;SDS011;6680;53.220;10.402;2023-10-09T02:52:53;2.77;;;2.40;;
13228;SDS011;6680;53.220;10.402;2023-10-09T02:55:26;2.53;;;2.33;;
13228;SDS011;6680;53.220;10.402;2023-10-09T02:57:54;4.17;;;2.50;;
13228;SDS011;6680;53.220;10.402;2023-10-09T03:00:32;3.07;;;2.17;;
13228;SDS011;6680;53.220;10.402;2023-10-09T03:03:01;3.20;;;2.27;;
13228;SDS011;6680;53.220;10.402;2023-10-09T03:05:31;4.67;;;2.20;;
13228;SDS011;6680;53.220;10.402;2023-10-09T03:07:58;2.20;;;2.00;;
13228;SDS011;6680;53.220;10.402;2023-10-09T03:10:27;2.20;;;2.00;;
13228;SDS011;6680;53.220;10.402;2023-10-09T03:12:55;2.93;;;2.17;;
13228;SDS011;6680;53.220;10.402;2023-10-09T03:15:26;3.17;;;2.13;;
13228;SDS011;6680;53.220;10.402;2023-10-09T03:17:54;3.53;;;1.80;;
13228;SDS011;6680;53.220;10.402;2023-10-09T03:20:21;3.77;;;2.30;;
13228;SDS011;6680;53.220;10.402;2023-10-09T03:22:47;2.40;;;2.20;;
13228;SDS011;6680;53.220;10.402;2023-10-09T03:25:15;2.67;;;2.07;;
13228;SDS011;6680;53.220;10.402;2023-10-09T03:27:43;3.50;;;2.03;;
13228;SDS011;6680;53.220;10.402;2023-10-09T03:30:13;2.90;;;2.23;;
13228;SDS011;6680;53.220;10.402;2023-10-09T03:32:47;3.50;;;2.30;;
13228;SDS011;6680;53.220;10.402;2023-10-09T03:35:16;2.93;;;2.20;;
13228;SDS011;6680;53.220;10.402;2023-10-09T03:37:49;2.33;;;2.10;;
13228;SDS011;6680;53.220;10.402;2023-10-09T03:40:18;3.03;;;2.20;;
13228;SDS011;6680;53.220;10.402;2023-10-09T03:42:46;1.93;;;1.83;;
13228;SDS011;6680;53.220;10.402;2023-10-09T03:45:15;3.27;;;1.83;;
13228;SDS011;6680;53.220;10.402;2023-10-09T03:47:50;2.17;;;1.90;;
13228;SDS011;6680;53.220;10.402;2023-10-09T03:50:22;1.50;;;1.40;;
13228;SDS011;6680;53.220;10.402;2023-10-09T03:52:52;3.73;;;1.83;;
13228;SDS011;6680;53.220;10.402;2023-10-09T03:55:20;2.40;;;2.20;;
13228;SDS011;6680;53.220;10.402;2023-10-09T03:57:53;3.00;;;2.47;;
13228;SDS011;6680;53.220;10.402;2023-10-09T04:00:24;2.30;;;2.07;;
13228;SDS011;6680;53.220;10.402;2023-10-09T04:02:54;4.07;;;2.10;;
13228;SDS011;6680;53.220;10.402;2023-10-09T04:05:22;2.47;;;1.97;;
13228;SDS011;6680;53.220;10.402;2023-10-09T04:07:49;5.77;;;2.40;;
13228;SDS011;6680;53.220;10.402;2023-10-09T04:10:18;5.93;;;2.00;;
13228;SDS011;6680;53.220;10.402;2023-10-09T04:13:16;3.63;;;2.13;;
13228;SDS011;6680;53.220;10.402;2023-10-09T04:15:48;3.17;;;2.50;;
13228;SDS011;6680;53.220;10.402;2023-10-09T04:18:18;4.30;;;2.33;;
13228;SDS011;6680;53.220;10.402;2023-10-09T04:20:53;2.77;;;2.03;;
13228;SDS011;6680;53.220;10.402;2023-10-09T04:23:38;3.33;;;1.80;;
13228;SDS011;6680;53.220;10.402;2023-10-09T04:26:19;3.47;;;2.30;;
13228;SDS011;6680;53.220;10.402;2023-10-09T04:28:46;2.90;;;2.20;;
13228;SDS011;6680;53.220;10.402;2023-10-09T04:31:17;2.63;;;1.83;;
13228;SDS011;6680;53.220;10.402;2023-10-09T04:33:47;2.43;;;2.23;;
13228;SDS011;6680;53.220;10.402;2023-10-09T04:36:40;3.83;;;2.40;;
13228;SDS011;6680;53.220;10.402;2023-10-09T04:39:13;3.13;;;2.20;;
13228;SDS011;6680;53.220;10.402;2023-10-09T04:42:00;2.57;;;2.20;;
13228;SDS011;6680;53.220;10.402;2023-10-09T04:44:52;3.47;;;2.07;;
13228;SDS011;6680;53.220;10.402;2023-10-09T04:47:37;2.87;;;2.40;;
13228;SDS011;6680;53.220;10.402;2023-10-09T04:50:14;3.47;;;2.37;;
13228;SDS011;6680;53.220;10.402;2023-10-09T04:52:55;3.57;;;2.20;;
13228;SDS011;6680;53.220;10.402;2023-10-09T04:55:38;3.70;;;2.50;;
13228;SDS011;6680;53.220;10.402;2023-10-09T04:58:09;3.23;;;2.10;;
13228;SDS011;6680;53.220;10.402;2023-10-09T05:00:39;2.43;;;1.87;;
13228;SDS011;6680;53.220;10.402;2023-10-09T05:03:29;2.13;;;1.93;;
13228;SDS011;6680;53.220;10.402;2023-10-09T05:06:08;1.90;;;1.70;;
13228;SDS011;6680;53.220;10.402;2023-10-09T05:08:47;4.13;;;2.30;;
13228;SDS011;6680;53.220;10.402;2023-10-09T05:11:14;2.90;;;2.00;;
13228;SDS011;6680;53.220;10.402;2023-10-09T05:13:59;4.20;;;2.17;;
13228;SDS011;6680;53.220;10.402;2023-10-09T05:16:37;2.23;;;2.03;;
13228;SDS011;6680;53.220;10.402;2023-10-09T05:19:20;4.50;;;2.43;;
13228;SDS011;6680;53.220;10.402;2023-10-09T05:22:07;3.43;;;2.07;;
13228;SDS011;6680;53.220;10.402;2023-10-09T05:24:42;2.40;;;1.97;;
13228;SDS011;6680;53.220;10.402;2023-10-09T05:27:11;2.60;;;2.10;;
13228;SDS011;6680;53.220;10.402;2023-10-09T05:29:43;2.27;;;2.00;;
13228;SDS011;6680;53.220;10.402;2023-10-09T05:32:37;2.37;;;2.07;;
13228;SDS011;6680;53.220;10.402;2023-10-09T05:35:14;3.20;;;1.97;;
13228;SDS011;6680;53.220;10.402;2023-10-09T05:37:41;2.13;;;1.97;;
13228;SDS011;6680;53.220;10.402;2023-10-09T05:40:11;2.70;;;2.30;;
13228;SDS011;6680;53.220;10.402;2023-10-09T05:42:48;2.53;;;1.87;;
13228;SDS011;6680;53.220;10.402;2023-10-09T05:45:25;2.50;;;2.13;;
13228;SDS011;6680;53.220;10.402;2023-10-09T05:48:15;2.77;;;2.27;;
13228;SDS011;6680;53.220;10.402;2023-10-09T05:51:27;3.17;;;2.47;;
13228;SDS011;6680;53.220;10.402;2023-10-09T05:54:09;3.23;;;2.30;;
13228;SDS011;6680;53.220;10.402;2023-10-09T05:57:08;2.33;;;1.90;;
13228;SDS011;6680;53.220;10.402;2023-10-09T05:59:49;4.93;;;2.07;;
13228;SDS011;6680;53.220;10.402;2023-10-09T06:02:33;2.90;;;1.90;;
13228;SDS011;6680;53.220;10.402;2023-10-09T06:05:20;3.47;;;2.40;;
13228;SDS011;6680;53.220;10.402;2023-10-09T06:08:05;3.23;;;2.50;;
13228;SDS011;6680;53.220;10.402;2023-10-09T06:10:33;2.40;;;1.83;;
13228;SDS011;6680;53.220;10.402;2023-10-09T06:13:09;3.77;;;2.67;;
13228;SDS011;6680;53.220;10.402;2023-10-09T06:16:09;2.83;;;2.13;;
13228;SDS011;6680;53.220;10.402;2023-10-09T06:18:45;3.53;;;2.10;;
13228;SDS011;6680;53.220;10.402;2023-10-09T06:21:19;2.23;;;2.03;;
13228;SDS011;6680;53.220;10.402;2023-10-09T06:24:25;3.20;;;2.47;;
13228;SDS011;6680;53.220;10.402;2023-10-09T06:26:58;2.20;;;2.00;;
13228;SDS011;6680;53.220;10.402;2023-10-09T06:29:51;3.00;;;2.40;;
13228;SDS011;6680;53.220;10.402;2023-10-09T06:32:39;3.47;;;2.27;;
13228;SDS011;6680;53.220;10.402;2023-10-09T06:35:16;4.10;;;2.33;;
13228;SDS011;6680;53.220;10.402;2023-10-09T06:37:47;2.80;;;2.23;;
13228;SDS011;6680;53.220;10.402;2023-10-09T06:40:33;3.50;;;2.20;;
13228;SDS011;6680;53.220;10.402;2023-10-09T06:43:18;3.70;;;2.00;;
13228;SDS011;6680;53.220;10.402;2023-10-09T06:45:53;2.43;;;2.23;;
13228;SDS011;6680;53.220;10.402;2023-10-09T06:48:24;2.23;;;2.13;;
13228;SDS011;6680;53.220;10.402;2023-10-09T06:51:09;3.93;;;2.30;;
13228;SDS011;6680;53.220;10.402;2023-10-09T06:53:40;3.77;;;2.27;;
13228;SDS011;6680;53.220;10.402;2023-10-09T06:56:24;3.20;;;2.47;;
13228;SDS011;6680;53.220;10.402;2023-10-09T06:59:12;3.60;;;2.10;;
13228;SDS011;6680;53.220;10.402;2023-10-09T07:01:42;5.10;;;2.50;;
13228;SDS011;6680;53.220;10.402;2023-10-09T07:04:13;3.20;;;2.80;;
13228;SDS011;6680;53.220;10.402;2023-10-09T07:06:44;3.17;;;2.60;;
13228;SDS011;6680;53.220;10.402;2023-10-09T07:09:16;4.10;;;2.50;;
13228;SDS011;6680;53.220;10.402;2023-10-09T07:11:45;3.37;;;2.57;;
13228;SDS011;6680;53.220;10.402;2023-10-09T07:14:35;4.13;;;2.63;;
13228;SDS011;6680;53.220;10.402;2023-10-09T07:17:19;2.73;;;2.50;;
13228;SDS011;6680;53.220;10.402;2023-10-09T07:19:53;2.83;;;2.40;;
13228;SDS011;6680;53.220;10.402;2023-10-09T07:22:38;3.90;;;2.10;;
13228;SDS011;6680;53.220;10.402;2023-10-09T07:25:22;3.60;;;3.03;;
13228;SDS011;6680;53.220;10.402;2023-10-09T07:28:03;3.10;;;2.80;;
13228;SDS011;6680;53.220;10.402;2023-10-09T07:30:43;3.20;;;2.60;;
13228;SDS011;6680;53.220;10.402;2023-10-09T07:33:11;2.87;;;2.17;;
13228;SDS011;6680;53.220;10.402;2023-10-09T07:35:44;3.27;;;2.83;;
13228;SDS011;6680;53.220;10.402;2023-10-09T07:38:15;2.63;;;2.30;;
13228;SDS011;6680;53.220;10.402;2023-10-09T07:40:44;3.63;;;2.80;;
13228;SDS011;6680;53.220;10.402;2023-10-09T07:43:21;3.00;;;2.70;;
13228;SDS011;6680;53.220;10.402;2023-10-09T07:45:52;3.10;;;2.80;;
13228;SDS011;6680;53.220;10.402;2023-10-09T07:48:36;3.23;;;2.63;;
13228;SDS011;6680;53.220;10.402;2023-10-09T07:51:15;4.70;;;2.57;;
13228;SDS011;6680;53.220;10.402;2023-10-09T07:53:41;3.97;;;2.93;;
13228;SDS011;6680;53.220;10.402;2023-10-09T07:56:11;2.90;;;2.60;;
13228;SDS011;6680;53.220;10.402;2023-10-09T07:58:39;3.60;;;2.83;;
13228;SDS011;6680;53.220;10.402;2023-10-09T08:01:12;5.00;;;2.73;;
13228;SDS011;6680;53.220;10.402;2023-10-09T08:03:47;2.63;;;2.20;;
13228;SDS011;6680;53.220;10.402;2023-10-09T08:06:24;3.27;;;2.90;;
13228;SDS011;6680;53.220;10.402;2023-10-09T08:09:08;2.73;;;2.50;;
13228;SDS011;6680;53.220;10.402;2023-10-09T08:11:53;2.63;;;2.43;;
13228;SDS011;6680;53.220;10.402;2023-10-09T08:14:39;3.30;;;2.47;;
13228;SDS011;6680;53.220;10.402;2023-10-09T08:17:11;2.97;;;2.67;;
13228;SDS011;6680;53.220;10.402;2023-10-09T08:19:40;2.80;;;2.57;;
13228;SDS011;6680;53.220;10.402;2023-10-09T08:22:23;3.93;;;3.00;;
13228;SDS011;6680;53.220;10.402;2023-10-09T08:25:15;2.67;;;2.47;;
13228;SDS011;6680;53.220;10.402;2023-10-09T08:27:55;3.30;;;2.63;;
13228;SDS011;6680;53.220;10.402;2023-10-09T08:30:40;2.67;;;2.47;;
13228;SDS011;6680;53.220;10.402;2023-10-09T08:33:14;2.80;;;2.50;;
13228;SDS011;6680;53.220;10.402;2023-10-09T08:35:58;3.13;;;2.83;;
13228;SDS011;6680;53.220;10.402;2023-10-09T08:41:42;3.00;;;2.70;;
13228;SDS011;6680;53.220;10.402;2023-10-09T08:44:10;4.60;;;3.47;;
13228;SDS011;6680;53.220;10.402;2023-10-09T08:46:40;3.30;;;3.00;;
13228;SDS011;6680;53.220;10.402;2023-10-09T08:49:08;3.30;;;3.00;;
13228;SDS011;6680;53.220;10.402;2023-10-09T08:51:37;3.50;;;3.17;;
13228;SDS011;6680;53.220;10.402;2023-10-09T08:54:04;4.47;;;3.70;;
13228;SDS011;6680;53.220;10.402;2023-10-09T08:56:36;4.80;;;3.83;;
13228;SDS011;6680;53.220;10.402;2023-10-09T08:59:07;4.43;;;4.03;;
13228;SDS011;6680;53.220;10.402;2023-10-09T09:01:35;5.00;;;4.10;;
13228;SDS011;6680;53.220;10.402;2023-10-09T09:04:04;4.77;;;3.53;;
13228;SDS011;6680;53.220;10.402;2023-10-09T09:06:36;5.33;;;3.63;;
13228;SDS011;6680;53.220;10.402;2023-10-09T09:09:11;5.10;;;4.13;;
13228;SDS011;6680;53.220;10.402;2023-10-09T09:11:41;6.07;;;3.40;;
13228;SDS011;6680;53.220;10.402;2023-10-09T09:14:14;4.07;;;3.63;;
13228;SDS011;6680;53.220;10.402;2023-10-09T09:16:45;5.83;;;4.33;;
13228;SDS011;6680;53.220;10.402;2023-10-09T09:19:13;5.80;;;4.00;;
13228;SDS011;6680;53.220;10.402;2023-10-09T09:21:47;9.33;;;4.70;;
13228;SDS011;6680;53.220;10.402;2023-10-09T09:24:20;3.97;;;3.57;;
13228;SDS011;6680;53.220;10.402;2023-10-09T09:26:56;5.50;;;3.57;;
13228;SDS011;6680;53.220;10.402;2023-10-09T09:29:38;5.40;;;4.10;;
13228;SDS011;6680;53.220;10.402;2023-10-09T09:32:07;6.00;;;3.97;;
13228;SDS011;6680;53.220;10.402;2023-10-09T09:34:45;5.17;;;3.63;;
13228;SDS011;6680;53.220;10.402;2023-10-09T09:37:18;5.90;;;4.30;;
13228;SDS011;6680;53.220;10.402;2023-10-09T09:39:47;5.83;;;3.70;;
13228;SDS011;6680;53.220;10.402;2023-10-09T09:42:16;6.13;;;4.27;;
13228;SDS011;6680;53.220;10.402;2023-10-09T09:44:49;5.00;;;4.00;;
13228;SDS011;6680;53.220;10.402;2023-10-09T09:47:18;5.40;;;3.90;;
13228;SDS011;6680;53.220;10.402;2023-10-09T09:49:52;5.17;;;4.13;;
13228;SDS011;6680;53.220;10.402;2023-10-09T09:52:25;5.23;;;4.47;;
13228;SDS011;6680;53.220;10.402;2023-10-09T09:54:54;6.17;;;4.30;;
13228;SDS011;6680;53.220;10.402;2023-10-09T09:57:22;5.70;;;4.70;;
13228;SDS011;6680;53.220;10.402;2023-10-09T09:59:52;5.03;;;3.90;;
13228;SDS011;6680;53.220;10.402;2023-10-09T10:02:23;5.77;;;4.40;;
13228;SDS011;6680;53.220;10.402;2023-10-09T10:04:55;5.23;;;4.17;;
13228;SDS011;6680;53.220;10.402;2023-10-09T10:07:25;6.13;;;4.50;;
13228;SDS011;6680;53.220;10.402;2023-10-09T10:09:57;4.73;;;3.63;;
13228;SDS011;6680;53.220;10.402;2023-10-09T10:15:31;5.63;;;3.87;;
13228;SDS011;6680;53.220;10.402;2023-10-09T10:18:25;4.63;;;4.03;;
13228;SDS011;6680;53.220;10.402;2023-10-09T10:21:09;4.27;;;3.87;;
13228;SDS011;6680;53.220;10.402;2023-10-09T10:23:40;5.10;;;3.67;;
13228;SDS011;6680;53.220;10.402;2023-10-09T10:26:19;3.73;;;2.90;;
13228;SDS011;6680;53.220;10.402;2023-10-09T10:31:57;5.40;;;3.40;;
13228;SDS011;6680;53.220;10.402;2023-10-09T10:34:25;5.03;;;3.17;;
13228;SDS011;6680;53.220;10.402;2023-10-09T10:36:53;2.87;;;2.63;;
13228;SDS011;6680;53.220;10.402;2023-10-09T10:39:24;3.90;;;2.60;;
13228;SDS011;6680;53.220;10.402;2023-10-09T10:42:07;3.07;;;2.77;;
13228;SDS011;6680;53.220;10.402;2023-10-09T10:44:39;2.37;;;2.17;;
13228;SDS011;6680;53.220;10.402;2023-10-09T10:47:09;3.20;;;2.40;;
13228;SDS011;6680;53.220;10.402;2023-10-09T10:49:50;2.57;;;2.23;;
13228;SDS011;6680;53.220;10.402;2023-10-09T10:52:23;2.23;;;2.03;;
13228;SDS011;6680;53.220;10.402;2023-10-09T10:55:07;3.20;;;2.20;;
13228;SDS011;6680;53.220;10.402;2023-10-09T10:58:08;2.30;;;2.00;;
13228;SDS011;6680;53.220;10.402;2023-10-09T11:00:51;2.20;;;1.97;;
13228;SDS011;6680;53.220;10.402;2023-10-09T11:03:45;2.20;;;2.10;;
13228;SDS011;6680;53.220;10.402;2023-10-09T11:06:31;1.60;;;1.50;;
13228;SDS011;6680;53.220;10.402;2023-10-09T11:09:07;1.80;;;1.70;;
13228;SDS011;6680;53.220;10.402;2023-10-09T11:11:46;1.70;;;1.60;;
13228;SDS011;6680;53.220;10.402;2023-10-09T11:14:15;1.70;;;1.60;;
13228;SDS011;6680;53.220;10.402;2023-10-09T11:16:42;1.63;;;1.53;;
13228;SDS011;6680;53.220;10.402;2023-10-09T11:19:13;2.00;;;1.90;;
13228;SDS011;6680;53.220;10.402;2023-10-09T11:21:54;1.77;;;1.67;;
13228;SDS011;6680;53.220;10.402;2023-10-09T11:24:46;1.80;;;1.70;;
13228;SDS011;6680;53.220;10.402;2023-10-09T11:27:35;2.03;;;1.93;;
13228;SDS011;6680;53.220;10.402;2023-10-09T11:30:07;1.97;;;1.87;;
13228;SDS011;6680;53.220;10.402;2023-10-09T11:32:46;4.73;;;1.80;;
13228;SDS011;6680;53.220;10.402;2023-10-09T11:35:15;1.43;;;1.33;;
13228;SDS011;6680;53.220;10.402;2023-10-09T11:37:54;2.00;;;1.90;;
13228;SDS011;6680;53.220;10.402;2023-10-09T11:40:27;1.43;;;1.33;;
13228;SDS011;6680;53.220;10.402;2023-10-09T11:43:12;1.80;;;1.70;;
13228;SDS011;6680;53.220;10.402;2023-10-09T11:45:41;1.80;;;1.70;;
13228;SDS011;6680;53.220;10.402;2023-10-09T11:48:19;1.73;;;1.63;;
13228;SDS011;6680;53.220;10.402;2023-10-09T11:50:58;1.70;;;1.60;;
13228;SDS011;6680;53.220;10.402;2023-10-09T11:53:44;1.60;;;1.50;;
13228;SDS011;6680;53.220;10.402;2023-10-09T11:56:15;1.63;;;1.57;;
13228;SDS011;6680;53.220;10.402;2023-10-09T11:58:46;1.70;;;1.60;;
13228;SDS011;6680;53.220;10.402;2023-10-09T12:01:16;1.53;;;1.43;;
13228;SDS011;6680;53.220;10.402;2023-10-09T12:03:45;2.00;;;1.50;;
13228;SDS011;6680;53.220;10.402;2023-10-09T12:06:15;1.80;;;1.70;;
13228;SDS011;6680;53.220;10.402;2023-10-09T12:08:44;1.30;;;1.30;;
13228;SDS011;6680;53.220;10.402;2023-10-09T12:11:12;1.60;;;1.50;;
13228;SDS011;6680;53.220;10.402;2023-10-09T12:13:41;1.40;;;1.30;;
13228;SDS011;6680;53.220;10.402;2023-10-09T12:16:08;1.60;;;1.50;;
13228;SDS011;6680;53.220;10.402;2023-10-09T12:18:36;1.60;;;1.50;;
13228;SDS011;6680;53.220;10.402;2023-10-09T12:21:04;1.70;;;1.60;;
13228;SDS011;6680;53.220;10.402;2023-10-09T12:23:32;1.60;;;1.50;;
13228;SDS011;6680;53.220;10.402;2023-10-09T12:26:01;1.60;;;1.50;;
13228;SDS011;6680;53.220;10.402;2023-10-09T12:28:28;1.50;;;1.37;;
13228;SDS011;6680;53.220;10.402;2023-10-09T12:30:58;1.60;;;1.50;;
13228;SDS011;6680;53.220;10.402;2023-10-09T12:33:26;1.60;;;1.50;;
13228;SDS011;6680;53.220;10.402;2023-10-09T12:35:56;1.93;;;1.83;;
13228;SDS011;6680;53.220;10.402;2023-10-09T12:38:25;1.70;;;1.60;;
13228;SDS011;6680;53.220;10.402;2023-10-09T12:41:00;2.00;;;1.67;;
13228;SDS011;6680;53.220;10.402;2023-10-09T12:43:33;1.53;;;1.43;;
13228;SDS011;6680;53.220;10.402;2023-10-09T12:46:04;1.80;;;1.70;;
13228;SDS011;6680;53.220;10.402;2023-10-09T12:48:32;1.60;;;1.50;;
13228;SDS011;6680;53.220;10.402;2023-10-09T12:51:00;1.57;;;1.50;;
13228;SDS011;6680;53.220;10.402;2023-10-09T12:53:31;2.03;;;1.40;;
13228;SDS011;6680;53.220;10.402;2023-10-09T12:55:58;1.73;;;1.63;;
13228;SDS011;6680;53.220;10.402;2023-10-09T12:58:25;1.37;;;1.27;;
13228;SDS011;6680;53.220;10.402;2023-10-09T13:00:52;1.53;;;1.47;;
13228;SDS011;6680;53.220;10.402;2023-10-09T13:03:19;1.53;;;1.43;;
13228;SDS011;6680;53.220;10.402;2023-10-09T13:05:53;1.83;;;1.50;;
13228;SDS011;6680;53.220;10.402;2023-10-09T13:08:23;1.70;;;1.60;;
13228;SDS011;6680;53.220;10.402;2023-10-09T13:10:56;1.63;;;1.53;;
13228;SDS011;6680;53.220;10.402;2023-10-09T13:13:32;2.10;;;1.60;;
13228;SDS011;6680;53.220;10.402;2023-10-09T13:16:09;1.30;;;1.30;;
13228;SDS011;6680;53.220;10.402;2023-10-09T13:18:47;1.50;;;1.40;;
13228;SDS011;6680;53.220;10.402;2023-10-09T13:21:16;1.67;;;1.57;;
13228;SDS011;6680;53.220;10.402;2023-10-09T13:23:47;1.70;;;1.60;;
13228;SDS011;6680;53.220;10.402;2023-10-09T13:26:16;1.77;;;1.67;;
13228;SDS011;6680;53.220;10.402;2023-10-09T13:28:49;1.70;;;1.60;;
13228;SDS011;6680;53.220;10.402;2023-10-09T13:31:17;1.67;;;1.57;;
13228;SDS011;6680;53.220;10.402;2023-10-09T13:33:46;1.70;;;1.60;;
13228;SDS011;6680;53.220;10.402;2023-10-09T13:36:14;1.90;;;1.80;;
13228;SDS011;6680;53.220;10.402;2023-10-09T13:38:53;1.90;;;1.70;;
13228;SDS011;6680;53.220;10.402;2023-10-09T13:41:20;3.43;;;1.90;;
13228;SDS011;6680;53.220;10.402;2023-10-09T13:43:47;3.07;;;1.70;;
13228;SDS011;6680;53.220;10.402;2023-10-09T13:46:16;1.73;;;1.63;;
13228;SDS011;6680;53.220;10.402;2023-10-09T13:48:44;1.77;;;1.67;;
13228;SDS011;6680;53.220;10.402;2023-10-09T13:51:14;1.47;;;1.37;;
13228;SDS011;6680;53.220;10.402;2023-10-09T13:53:43;1.63;;;1.53;;
13228;SDS011;6680;53.220;10.402;2023-10-09T13:56:15;3.47;;;2.00;;
13228;SDS011;6680;53.220;10.402;2023-10-09T13:58:44;1.80;;;1.70;;
13228;SDS011;6680;53.220;10.402;2023-10-09T14:01:12;1.80;;;1.33;;
13228;SDS011;6680;53.220;10.402;2023-10-09T14:03:51;1.60;;;1.50;;
13228;SDS011;6680;53.220;10.402;2023-10-09T14:06:21;1.70;;;1.60;;
13228;SDS011;6680;53.220;10.402;2023-10-09T14:08:56;1.70;;;1.60;;
13228;SDS011;6680;53.220;10.402;2023-10-09T14:11:25;1.60;;;1.50;;
13228;SDS011;6680;53.220;10.402;2023-10-09T14:13:53;1.87;;;1.77;;
13228;SDS011;6680;53.220;10.402;2023-10-09T14:16:19;2.00;;;1.90;;
13228;SDS011;6680;53.220;10.402;2023-10-09T14:18:56;1.83;;;1.73;;
13228;SDS011;6680;53.220;10.402;2023-10-09T14:21:24;1.93;;;1.83;;
13228;SDS011;6680;53.220;10.402;2023-10-09T14:23:55;2.00;;;1.90;;
13228;SDS011;6680;53.220;10.402;2023-10-09T14:26:27;1.73;;;1.63;;
13228;SDS011;6680;53.220;10.402;2023-10-09T14:28:55;1.60;;;1.50;;
13228;SDS011;6680;53.220;10.402;2023-10-09T14:31:23;1.80;;;1.70;;
13228;SDS011;6680;53.220;10.402;2023-10-09T14:33:54;2.10;;;1.90;;
13228;SDS011;6680;53.220;10.402;2023-10-09T14:36:22;1.70;;;1.60;;
13228;SDS011;6680;53.220;10.402;2023-10-09T14:38:50;1.77;;;1.67;;
13228;SDS011;6680;53.220;10.402;2023-10-09T14:41:19;2.93;;;2.33;;
13228;SDS011;6680;53.220;10.402;2023-10-09T14:43:50;1.83;;;1.73;;
13228;SDS011;6680;53.220;10.402;2023-10-09T14:46:17;2.70;;;2.03;;
13228;SDS011;6680;53.220;10.402;2023-10-09T14:48:48;2.33;;;1.70;;
13228;SDS011;6680;53.220;10.402;2023-10-09T14:51:18;2.00;;;1.90;;
13228;SDS011;6680;53.220;10.402;2023-10-09T14:53:51;2.13;;;1.97;;
13228;SDS011;6680;53.220;10.402;2023-10-09T14:56:22;2.00;;;1.90;;
13228;SDS011;6680;53.220;10.402;2023-10-09T14:58:55;2.10;;;2.00;;
13228;SDS011;6680;53.220;10.402;2023-10-09T15:01:23;2.27;;;2.10;;
13228;SDS011;6680;53.220;10.402;2023-10-09T15:03:53;2.07;;;1.97;;
13228;SDS011;6680;53.220;10.402;2023-10-09T15:06:24;3.47;;;2.13;;
13228;SDS011;6680;53.220;10.402;2023-10-09T15:08:53;1.87;;;1.77;;
13228;SDS011;6680;53.220;10.402;2023-10-09T15:11:24;1.87;;;1.77;;
13228;SDS011;6680;53.220;10.402;2023-10-09T15:13:53;2.30;;;2.10;;
13228;SDS011;6680;53.220;10.402;2023-10-09T15:16:24;2.97;;;2.07;;
13228;SDS011;6680;53.220;10.402;2023-10-09T15:18:53;2.63;;;2.43;;
13228;SDS011;6680;53.220;10.402;2023-10-09T15:21:22;1.90;;;1.80;;
13228;SDS011;6680;53.220;10.402;2023-10-09T15:23:51;2.23;;;2.03;;
13228;SDS011;6680;53.220;10.402;2023-10-09T15:26:19;2.37;;;2.23;;
13228;SDS011;6680;53.220;10.402;2023-10-09T15:28:48;2.53;;;2.33;;
13228;SDS011;6680;53.220;10.402;2023-10-09T15:31:17;2.60;;;2.40;;
13228;SDS011;6680;53.220;10.402;2023-10-09T15:33:46;2.40;;;1.97;;
13228;SDS011;6680;53.220;10.402;2023-10-09T15:36:16;2.50;;;2.30;;
13228;SDS011;6680;53.220;10.402;2023-10-09T15:38:45;2.60;;;2.40;;